General Cabrera, Argentina
Current Conditions -  °F | °C
As of 10:00 AM on Wednesday 22 Oct 2014 (Local Time) from SAOC Reporting Station
Clear Clear  
Wind Chill: 81°   Ceiling: Unl
Heat Index: 81°   Visibility: 6mi
Dew Point: 45°   Wind: 26mph
Humidity: 28%   Direction: 340°NNW
Pressure: 29.94"   Gusts: 38mph
Location:  32.8°S, 63.87°W
Report Text: SAOC 221300Z 34023G33KT CAVOK 27/07 Q1014
Loading
Personal Weather Stations






























Interactive Weather Map
Tropical Storm Tracking
New forecast layout! Learn more

10-Day Weather Forecast

Advertisements
Track Severe Weather on mobile